sensor_id;sensor_type;location;lat;lon;timestamp;P1;durP1;ratioP1;P2;durP2;ratioP2
68987;SDS011;56038;46.080;11.116;2024-03-02T00:02:42;7.18;;;5.15;;
68987;SDS011;56038;46.080;11.116;2024-03-02T00:07:44;8.25;;;5.53;;
68987;SDS011;56038;46.080;11.116;2024-03-02T00:12:47;6.10;;;5.15;;
68987;SDS011;56038;46.080;11.116;2024-03-02T00:17:53;7.63;;;4.72;;
68987;SDS011;56038;46.080;11.116;2024-03-02T00:22:56;7.32;;;6.18;;
68987;SDS011;56038;46.080;11.116;2024-03-02T00:28:04;6.72;;;5.05;;
68987;SDS011;56038;46.080;11.116;2024-03-02T00:33:09;7.38;;;5.35;;
68987;SDS011;56038;46.080;11.116;2024-03-02T00:38:11;7.35;;;4.88;;
68987;SDS011;56038;46.080;11.116;2024-03-02T00:48:54;5.35;;;4.32;;
68987;SDS011;56038;46.080;11.116;2024-03-02T00:53:58;5.43;;;3.80;;
68987;SDS011;56038;46.080;11.116;2024-03-02T00:59:01;5.63;;;4.40;;
68987;SDS011;56038;46.080;11.116;2024-03-02T01:04:04;8.13;;;4.22;;
68987;SDS011;56038;46.080;11.116;2024-03-02T01:09:06;6.28;;;4.75;;
68987;SDS011;56038;46.080;11.116;2024-03-02T01:14:08;5.72;;;4.22;;
68987;SDS011;56038;46.080;11.116;2024-03-02T01:19:11;6.43;;;3.70;;
68987;SDS011;56038;46.080;11.116;2024-03-02T01:24:13;6.80;;;4.72;;
68987;SDS011;56038;46.080;11.116;2024-03-02T01:29:15;6.97;;;4.63;;
68987;SDS011;56038;46.080;11.116;2024-03-02T01:34:18;5.65;;;4.03;;
68987;SDS011;56038;46.080;11.116;2024-03-02T01:39:20;4.80;;;4.10;;
68987;SDS011;56038;46.080;11.116;2024-03-02T01:44:22;5.80;;;4.53;;
68987;SDS011;56038;46.080;11.116;2024-03-02T01:49:25;5.38;;;3.90;;
68987;SDS011;56038;46.080;11.116;2024-03-02T01:54:27;5.22;;;3.83;;
68987;SDS011;56038;46.080;11.116;2024-03-02T01:59:29;3.50;;;3.20;;
68987;SDS011;56038;46.080;11.116;2024-03-02T02:04:32;6.10;;;3.97;;
68987;SDS011;56038;46.080;11.116;2024-03-02T02:09:34;3.80;;;3.45;;
68987;SDS011;56038;46.080;11.116;2024-03-02T02:14:36;5.80;;;3.70;;
68987;SDS011;56038;46.080;11.116;2024-03-02T02:19:41;4.80;;;3.85;;
68987;SDS011;56038;46.080;11.116;2024-03-02T02:24:44;3.67;;;3.35;;
68987;SDS011;56038;46.080;11.116;2024-03-02T02:29:46;4.60;;;3.42;;
68987;SDS011;56038;46.080;11.116;2024-03-02T02:34:51;4.93;;;3.55;;
68987;SDS011;56038;46.080;11.116;2024-03-02T02:39:55;3.83;;;3.50;;
68987;SDS011;56038;46.080;11.116;2024-03-02T02:44:56;4.18;;;3.70;;
68987;SDS011;56038;46.080;11.116;2024-03-02T02:49:58;4.75;;;3.88;;
68987;SDS011;56038;46.080;11.116;2024-03-02T02:55:01;5.63;;;3.72;;
68987;SDS011;56038;46.080;11.116;2024-03-02T03:00:05;4.00;;;3.70;;
68987;SDS011;56038;46.080;11.116;2024-03-02T03:05:11;4.30;;;3.53;;
68987;SDS011;56038;46.080;11.116;2024-03-02T03:10:15;8.50;;;4.03;;
68987;SDS011;56038;46.080;11.116;2024-03-02T03:15:17;6.80;;;4.30;;
68987;SDS011;56038;46.080;11.116;2024-03-02T03:20:19;5.28;;;3.50;;
68987;SDS011;56038;46.080;11.116;2024-03-02T03:25:23;5.97;;;3.42;;
68987;SDS011;56038;46.080;11.116;2024-03-02T03:30:24;3.00;;;2.70;;
68987;SDS011;56038;46.080;11.116;2024-03-02T03:35:26;6.82;;;3.22;;
68987;SDS011;56038;46.080;11.116;2024-03-02T03:40:29;5.32;;;3.70;;
68987;SDS011;56038;46.080;11.116;2024-03-02T03:45:30;4.60;;;3.45;;
68987;SDS011;56038;46.080;11.116;2024-03-02T03:50:32;7.15;;;3.97;;
68987;SDS011;56038;46.080;11.116;2024-03-02T03:55:35;5.63;;;4.22;;
68987;SDS011;56038;46.080;11.116;2024-03-02T04:00:37;7.60;;;3.80;;
68987;SDS011;56038;46.080;11.116;2024-03-02T04:05:38;5.70;;;4.15;;
68987;SDS011;56038;46.080;11.116;2024-03-02T04:10:41;7.47;;;4.20;;
68987;SDS011;56038;46.080;11.116;2024-03-02T04:15:43;5.40;;;3.42;;
68987;SDS011;56038;46.080;11.116;2024-03-02T04:20:45;5.13;;;4.10;;
68987;SDS011;56038;46.080;11.116;2024-03-02T04:25:48;5.78;;;4.07;;
68987;SDS011;56038;46.080;11.116;2024-03-02T04:30:50;5.15;;;4.10;;
68987;SDS011;56038;46.080;11.116;2024-03-02T04:35:51;5.80;;;4.22;;
68987;SDS011;56038;46.080;11.116;2024-03-02T04:40:54;5.97;;;3.90;;
68987;SDS011;56038;46.080;11.116;2024-03-02T04:45:56;4.68;;;3.75;;
68987;SDS011;56038;46.080;11.116;2024-03-02T04:50:58;5.60;;;3.80;;
68987;SDS011;56038;46.080;11.116;2024-03-02T04:56:01;5.85;;;4.32;;
68987;SDS011;56038;46.080;11.116;2024-03-02T05:01:27;6.18;;;4.28;;
68987;SDS011;56038;46.080;11.116;2024-03-02T05:06:30;4.10;;;3.70;;
68987;SDS011;56038;46.080;11.116;2024-03-02T05:11:33;4.20;;;3.50;;
68987;SDS011;56038;46.080;11.116;2024-03-02T05:17:03;6.75;;;3.92;;
68987;SDS011;56038;46.080;11.116;2024-03-02T05:22:05;4.63;;;3.72;;
68987;SDS011;56038;46.080;11.116;2024-03-02T05:27:08;6.13;;;3.88;;
68987;SDS011;56038;46.080;11.116;2024-03-02T05:32:09;5.53;;;4.00;;
68987;SDS011;56038;46.080;11.116;2024-03-02T05:37:11;4.72;;;3.63;;
68987;SDS011;56038;46.080;11.116;2024-03-02T05:42:14;6.32;;;4.40;;
68987;SDS011;56038;46.080;11.116;2024-03-02T05:47:17;5.30;;;4.20;;
68987;SDS011;56038;46.080;11.116;2024-03-02T05:52:18;6.72;;;4.43;;
68987;SDS011;56038;46.080;11.116;2024-03-02T05:57:22;6.65;;;4.00;;
68987;SDS011;56038;46.080;11.116;2024-03-02T06:02:39;4.47;;;3.38;;
68987;SDS011;56038;46.080;11.116;2024-03-02T06:07:40;3.85;;;3.45;;
68987;SDS011;56038;46.080;11.116;2024-03-02T06:12:44;5.63;;;4.05;;
68987;SDS011;56038;46.080;11.116;2024-03-02T06:17:45;4.63;;;3.72;;
68987;SDS011;56038;46.080;11.116;2024-03-02T06:22:47;5.35;;;3.95;;
68987;SDS011;56038;46.080;11.116;2024-03-02T06:27:50;5.22;;;4.18;;
68987;SDS011;56038;46.080;11.116;2024-03-02T06:32:52;5.40;;;3.80;;
68987;SDS011;56038;46.080;11.116;2024-03-02T06:37:53;5.35;;;4.22;;
68987;SDS011;56038;46.080;11.116;2024-03-02T06:42:56;5.30;;;4.80;;
68987;SDS011;56038;46.080;11.116;2024-03-02T06:47:58;5.10;;;4.60;;
68987;SDS011;56038;46.080;11.116;2024-03-02T06:53:00;5.80;;;4.88;;
68987;SDS011;56038;46.080;11.116;2024-03-02T06:58:05;5.90;;;5.30;;
68987;SDS011;56038;46.080;11.116;2024-03-02T07:03:07;5.15;;;4.00;;
68987;SDS011;56038;46.080;11.116;2024-03-02T07:08:09;11.30;;;9.90;;
68987;SDS011;56038;46.080;11.116;2024-03-02T07:13:12;5.90;;;5.22;;
68987;SDS011;56038;46.080;11.116;2024-03-02T07:18:14;5.25;;;4.63;;
68987;SDS011;56038;46.080;11.116;2024-03-02T07:23:15;10.27;;;4.72;;
68987;SDS011;56038;46.080;11.116;2024-03-02T07:28:18;4.82;;;4.28;;
68987;SDS011;56038;46.080;11.116;2024-03-02T07:33:20;5.70;;;4.45;;
68987;SDS011;56038;46.080;11.116;2024-03-02T07:38:23;4.47;;;3.45;;
68987;SDS011;56038;46.080;11.116;2024-03-02T07:43:26;4.45;;;3.88;;
68987;SDS011;56038;46.080;11.116;2024-03-02T07:48:28;4.70;;;3.83;;
68987;SDS011;56038;46.080;11.116;2024-03-02T07:53:30;4.20;;;3.80;;
68987;SDS011;56038;46.080;11.116;2024-03-02T07:58:33;6.97;;;4.22;;
68987;SDS011;56038;46.080;11.116;2024-03-02T08:03:35;17.83;;;13.93;;
68987;SDS011;56038;46.080;11.116;2024-03-02T08:08:38;7.78;;;5.60;;
68987;SDS011;56038;46.080;11.116;2024-03-02T08:13:41;5.65;;;4.55;;
68987;SDS011;56038;46.080;11.116;2024-03-02T08:18:43;6.60;;;5.60;;
68987;SDS011;56038;46.080;11.116;2024-03-02T08:23:45;5.28;;;4.78;;
68987;SDS011;56038;46.080;11.116;2024-03-02T08:28:48;5.25;;;4.70;;
68987;SDS011;56038;46.080;11.116;2024-03-02T08:33:50;6.78;;;5.53;;
68987;SDS011;56038;46.080;11.116;2024-03-02T08:38:51;5.78;;;5.15;;
68987;SDS011;56038;46.080;11.116;2024-03-02T08:43:54;6.72;;;4.85;;
68987;SDS011;56038;46.080;11.116;2024-03-02T08:48:56;5.35;;;4.85;;
68987;SDS011;56038;46.080;11.116;2024-03-02T08:53:58;5.93;;;5.32;;
68987;SDS011;56038;46.080;11.116;2024-03-02T08:59:01;5.75;;;5.15;;
68987;SDS011;56038;46.080;11.116;2024-03-02T09:04:03;6.90;;;5.68;;
68987;SDS011;56038;46.080;11.116;2024-03-02T09:09:05;5.25;;;4.75;;
68987;SDS011;56038;46.080;11.116;2024-03-02T09:14:08;5.15;;;3.95;;
68987;SDS011;56038;46.080;11.116;2024-03-02T09:19:10;4.30;;;3.10;;
68987;SDS011;56038;46.080;11.116;2024-03-02T09:24:11;4.78;;;3.50;;
68987;SDS011;56038;46.080;11.116;2024-03-02T09:29:14;5.90;;;4.32;;
68987;SDS011;56038;46.080;11.116;2024-03-02T09:34:16;4.13;;;3.72;;
68987;SDS011;56038;46.080;11.116;2024-03-02T09:39:18;4.70;;;4.03;;
68987;SDS011;56038;46.080;11.116;2024-03-02T09:44:21;4.75;;;4.10;;
68987;SDS011;56038;46.080;11.116;2024-03-02T09:49:25;4.47;;;4.07;;
68987;SDS011;56038;46.080;11.116;2024-03-02T09:54:26;5.65;;;5.15;;
68987;SDS011;56038;46.080;11.116;2024-03-02T09:59:30;3.35;;;3.10;;
68987;SDS011;56038;46.080;11.116;2024-03-02T10:04:31;4.13;;;3.20;;
68987;SDS011;56038;46.080;11.116;2024-03-02T10:09:33;3.22;;;2.92;;
68987;SDS011;56038;46.080;11.116;2024-03-02T10:14:36;4.88;;;3.80;;
68987;SDS011;56038;46.080;11.116;2024-03-02T10:19:39;4.15;;;2.90;;
68987;SDS011;56038;46.080;11.116;2024-03-02T10:24:41;3.88;;;3.47;;
68987;SDS011;56038;46.080;11.116;2024-03-02T10:29:46;3.42;;;3.13;;
68987;SDS011;56038;46.080;11.116;2024-03-02T10:34:49;4.78;;;3.60;;
68987;SDS011;56038;46.080;11.116;2024-03-02T10:39:52;4.80;;;3.10;;
68987;SDS011;56038;46.080;11.116;2024-03-02T10:44:55;4.35;;;2.55;;
68987;SDS011;56038;46.080;11.116;2024-03-02T10:49:57;3.53;;;2.58;;
68987;SDS011;56038;46.080;11.116;2024-03-02T10:55:01;4.05;;;2.72;;
68987;SDS011;56038;46.080;11.116;2024-03-02T11:00:07;5.65;;;2.75;;
68987;SDS011;56038;46.080;11.116;2024-03-02T11:05:14;2.53;;;2.33;;
68987;SDS011;56038;46.080;11.116;2024-03-02T11:10:28;3.10;;;2.00;;
68987;SDS011;56038;46.080;11.116;2024-03-02T11:15:36;5.13;;;2.38;;
68987;SDS011;56038;46.080;11.116;2024-03-02T11:20:38;5.07;;;2.30;;
68987;SDS011;56038;46.080;11.116;2024-03-02T11:25:40;4.88;;;2.40;;
68987;SDS011;56038;46.080;11.116;2024-03-02T11:30:49;4.70;;;2.22;;
68987;SDS011;56038;46.080;11.116;2024-03-02T11:35:56;4.72;;;2.40;;
68987;SDS011;56038;46.080;11.116;2024-03-02T11:40:59;5.38;;;2.63;;
68987;SDS011;56038;46.080;11.116;2024-03-02T11:46:04;4.03;;;2.30;;
68987;SDS011;56038;46.080;11.116;2024-03-02T11:51:07;2.75;;;2.28;;
68987;SDS011;56038;46.080;11.116;2024-03-02T11:56:09;4.47;;;2.30;;
68987;SDS011;56038;46.080;11.116;2024-03-02T12:01:13;6.10;;;2.58;;
68987;SDS011;56038;46.080;11.116;2024-03-02T12:06:15;4.45;;;2.53;;
68987;SDS011;56038;46.080;11.116;2024-03-02T12:11:17;4.68;;;3.05;;
68987;SDS011;56038;46.080;11.116;2024-03-02T12:16:23;2.60;;;2.40;;
68987;SDS011;56038;46.080;11.116;2024-03-02T12:21:26;3.95;;;2.47;;
68987;SDS011;56038;46.080;11.116;2024-03-02T12:26:27;4.90;;;2.78;;
68987;SDS011;56038;46.080;11.116;2024-03-02T12:31:31;4.28;;;2.33;;
68987;SDS011;56038;46.080;11.116;2024-03-02T12:36:36;5.22;;;2.72;;
68987;SDS011;56038;46.080;11.116;2024-03-02T12:46:42;8.05;;;4.00;;
68987;SDS011;56038;46.080;11.116;2024-03-02T12:51:44;3.70;;;2.53;;
68987;SDS011;56038;46.080;11.116;2024-03-02T12:56:51;5.03;;;2.97;;
68987;SDS011;56038;46.080;11.116;2024-03-02T13:01:55;3.78;;;2.38;;
68987;SDS011;56038;46.080;11.116;2024-03-02T13:06:58;3.35;;;2.03;;
68987;SDS011;56038;46.080;11.116;2024-03-02T13:12:00;1.88;;;1.60;;
68987;SDS011;56038;46.080;11.116;2024-03-02T13:17:05;3.40;;;2.63;;
68987;SDS011;56038;46.080;11.116;2024-03-02T13:22:09;1.60;;;1.48;;
68987;SDS011;56038;46.080;11.116;2024-03-02T13:27:11;2.40;;;1.80;;
68987;SDS011;56038;46.080;11.116;2024-03-02T13:32:14;2.50;;;2.15;;
68987;SDS011;56038;46.080;11.116;2024-03-02T13:37:16;3.20;;;2.10;;
68987;SDS011;56038;46.080;11.116;2024-03-02T13:42:18;3.88;;;2.15;;
68987;SDS011;56038;46.080;11.116;2024-03-02T13:47:21;2.90;;;1.88;;
68987;SDS011;56038;46.080;11.116;2024-03-02T13:52:23;3.70;;;1.70;;
68987;SDS011;56038;46.080;11.116;2024-03-02T13:57:26;1.92;;;1.67;;
68987;SDS011;56038;46.080;11.116;2024-03-02T14:02:29;1.50;;;1.40;;
68987;SDS011;56038;46.080;11.116;2024-03-02T14:07:31;3.90;;;1.65;;
68987;SDS011;56038;46.080;11.116;2024-03-02T14:12:33;2.05;;;1.73;;
68987;SDS011;56038;46.080;11.116;2024-03-02T14:17:36;2.17;;;1.73;;
68987;SDS011;56038;46.080;11.116;2024-03-02T14:22:38;2.60;;;1.40;;
68987;SDS011;56038;46.080;11.116;2024-03-02T14:27:40;2.50;;;1.50;;
68987;SDS011;56038;46.080;11.116;2024-03-02T14:32:43;1.73;;;1.60;;
68987;SDS011;56038;46.080;11.116;2024-03-02T14:37:45;2.15;;;1.42;;
68987;SDS011;56038;46.080;11.116;2024-03-02T14:42:47;2.67;;;1.60;;
68987;SDS011;56038;46.080;11.116;2024-03-02T14:47:50;1.75;;;1.60;;
68987;SDS011;56038;46.080;11.116;2024-03-02T14:52:53;2.05;;;1.52;;
68987;SDS011;56038;46.080;11.116;2024-03-02T14:57:57;2.00;;;1.35;;
68987;SDS011;56038;46.080;11.116;2024-03-02T15:03:00;3.17;;;1.65;;
68987;SDS011;56038;46.080;11.116;2024-03-02T15:08:04;1.80;;;1.47;;
68987;SDS011;56038;46.080;11.116;2024-03-02T15:13:07;3.30;;;1.63;;
68987;SDS011;56038;46.080;11.116;2024-03-02T15:18:10;2.85;;;2.10;;
68987;SDS011;56038;46.080;11.116;2024-03-02T15:23:12;2.42;;;1.88;;
68987;SDS011;56038;46.080;11.116;2024-03-02T15:28:14;2.25;;;1.88;;
68987;SDS011;56038;46.080;11.116;2024-03-02T15:33:17;2.33;;;1.70;;
68987;SDS011;56038;46.080;11.116;2024-03-02T15:38:19;3.83;;;2.10;;
68987;SDS011;56038;46.080;11.116;2024-03-02T15:43:20;2.25;;;1.90;;
68987;SDS011;56038;46.080;11.116;2024-03-02T15:48:25;3.55;;;1.85;;
68987;SDS011;56038;46.080;11.116;2024-03-02T15:53:28;2.42;;;1.83;;
68987;SDS011;56038;46.080;11.116;2024-03-02T15:58:29;3.92;;;1.77;;
68987;SDS011;56038;46.080;11.116;2024-03-02T16:03:33;3.40;;;1.80;;
68987;SDS011;56038;46.080;11.116;2024-03-02T16:08:37;6.63;;;2.55;;
68987;SDS011;56038;46.080;11.116;2024-03-02T16:13:39;4.10;;;2.25;;
68987;SDS011;56038;46.080;11.116;2024-03-02T16:18:42;4.22;;;2.33;;
68987;SDS011;56038;46.080;11.116;2024-03-02T16:23:44;2.45;;;1.70;;
68987;SDS011;56038;46.080;11.116;2024-03-02T16:28:46;3.22;;;2.38;;
68987;SDS011;56038;46.080;11.116;2024-03-02T16:33:49;5.22;;;2.40;;
68987;SDS011;56038;46.080;11.116;2024-03-02T16:38:51;2.70;;;2.50;;
68987;SDS011;56038;46.080;11.116;2024-03-02T16:43:53;6.82;;;2.90;;
68987;SDS011;56038;46.080;11.116;2024-03-02T16:48:56;4.53;;;3.13;;
68987;SDS011;56038;46.080;11.116;2024-03-02T16:53:58;3.10;;;2.72;;
68987;SDS011;56038;46.080;11.116;2024-03-02T16:59:00;2.85;;;2.40;;
68987;SDS011;56038;46.080;11.116;2024-03-02T17:04:04;2.60;;;2.40;;
68987;SDS011;56038;46.080;11.116;2024-03-02T17:09:06;3.45;;;2.50;;
68987;SDS011;56038;46.080;11.116;2024-03-02T17:14:08;3.42;;;2.90;;
68987;SDS011;56038;46.080;11.116;2024-03-02T17:19:11;4.72;;;2.70;;
68987;SDS011;56038;46.080;11.116;2024-03-02T17:24:13;4.97;;;2.80;;
68987;SDS011;56038;46.080;11.116;2024-03-02T17:29:15;2.47;;;2.28;;
68987;SDS011;56038;46.080;11.116;2024-03-02T17:34:18;3.65;;;2.65;;
68987;SDS011;56038;46.080;11.116;2024-03-02T17:39:19;4.10;;;2.47;;
68987;SDS011;56038;46.080;11.116;2024-03-02T17:44:21;4.15;;;2.67;;
68987;SDS011;56038;46.080;11.116;2024-03-02T17:49:25;2.95;;;2.65;;
68987;SDS011;56038;46.080;11.116;2024-03-02T17:54:26;4.50;;;2.75;;
68987;SDS011;56038;46.080;11.116;2024-03-02T17:59:28;3.03;;;2.72;;
68987;SDS011;56038;46.080;11.116;2024-03-02T18:04:32;3.50;;;3.20;;
68987;SDS011;56038;46.080;11.116;2024-03-02T18:09:33;4.45;;;4.05;;
68987;SDS011;56038;46.080;11.116;2024-03-02T18:14:35;6.93;;;4.97;;
68987;SDS011;56038;46.080;11.116;2024-03-02T18:19:38;4.93;;;4.13;;
68987;SDS011;56038;46.080;11.116;2024-03-02T18:24:40;4.10;;;3.70;;
68987;SDS011;56038;46.080;11.116;2024-03-02T18:29:42;5.40;;;2.67;;
68987;SDS011;56038;46.080;11.116;2024-03-02T18:34:45;3.25;;;2.70;;
68987;SDS011;56038;46.080;11.116;2024-03-02T18:39:47;4.82;;;2.75;;
68987;SDS011;56038;46.080;11.116;2024-03-02T18:44:50;3.88;;;2.75;;
68987;SDS011;56038;46.080;11.116;2024-03-02T18:49:54;3.95;;;2.55;;
68987;SDS011;56038;46.080;11.116;2024-03-02T18:54:57;2.25;;;2.05;;
68987;SDS011;56038;46.080;11.116;2024-03-02T18:59:59;2.75;;;2.55;;
68987;SDS011;56038;46.080;11.116;2024-03-02T19:05:03;3.28;;;2.83;;
68987;SDS011;56038;46.080;11.116;2024-03-02T19:10:06;3.17;;;2.97;;
68987;SDS011;56038;46.080;11.116;2024-03-02T19:15:10;4.13;;;3.35;;
68987;SDS011;56038;46.080;11.116;2024-03-02T19:20:15;6.25;;;5.38;;
68987;SDS011;56038;46.080;11.116;2024-03-02T19:25:17;5.05;;;3.28;;
68987;SDS011;56038;46.080;11.116;2024-03-02T19:30:20;3.47;;;3.15;;
68987;SDS011;56038;46.080;11.116;2024-03-02T19:35:23;3.97;;;3.33;;
68987;SDS011;56038;46.080;11.116;2024-03-02T19:40:26;4.60;;;3.78;;
68987;SDS011;56038;46.080;11.116;2024-03-02T19:45:28;5.85;;;3.95;;
68987;SDS011;56038;46.080;11.116;2024-03-02T19:50:31;4.25;;;3.60;;
68987;SDS011;56038;46.080;11.116;2024-03-02T19:55:33;5.75;;;3.72;;
68987;SDS011;56038;46.080;11.116;2024-03-02T20:00:36;4.00;;;3.58;;
68987;SDS011;56038;46.080;11.116;2024-03-02T20:05:40;8.75;;;5.80;;
68987;SDS011;56038;46.080;11.116;2024-03-02T20:10:41;6.15;;;4.75;;
68987;SDS011;56038;46.080;11.116;2024-03-02T20:15:43;5.43;;;4.93;;
68987;SDS011;56038;46.080;11.116;2024-03-02T20:20:46;5.25;;;3.50;;
68987;SDS011;56038;46.080;11.116;2024-03-02T20:25:48;5.35;;;4.85;;
68987;SDS011;56038;46.080;11.116;2024-03-02T20:30:50;7.18;;;5.03;;
68987;SDS011;56038;46.080;11.116;2024-03-02T20:35:53;5.10;;;4.38;;
68987;SDS011;56038;46.080;11.116;2024-03-02T20:40:55;6.20;;;5.07;;
68987;SDS011;56038;46.080;11.116;2024-03-02T20:45:57;5.72;;;4.63;;
68987;SDS011;56038;46.080;11.116;2024-03-02T20:51:05;4.43;;;4.00;;
68987;SDS011;56038;46.080;11.116;2024-03-02T20:56:07;7.50;;;4.93;;
68987;SDS011;56038;46.080;11.116;2024-03-02T21:01:10;5.97;;;4.32;;
68987;SDS011;56038;46.080;11.116;2024-03-02T21:06:13;6.70;;;5.28;;
68987;SDS011;56038;46.080;11.116;2024-03-02T21:11:15;7.13;;;5.68;;
68987;SDS011;56038;46.080;11.116;2024-03-02T21:16:18;5.88;;;5.18;;
68987;SDS011;56038;46.080;11.116;2024-03-02T21:21:21;7.57;;;5.50;;
68987;SDS011;56038;46.080;11.116;2024-03-02T21:26:23;6.90;;;5.72;;
68987;SDS011;56038;46.080;11.116;2024-03-02T21:31:25;6.82;;;5.82;;
68987;SDS011;56038;46.080;11.116;2024-03-02T21:36:28;5.38;;;4.43;;
68987;SDS011;56038;46.080;11.116;2024-03-02T21:41:30;6.28;;;5.68;;
68987;SDS011;56038;46.080;11.116;2024-03-02T21:46:31;6.38;;;5.55;;
68987;SDS011;56038;46.080;11.116;2024-03-02T21:51:35;6.32;;;5.72;;
68987;SDS011;56038;46.080;11.116;2024-03-02T21:56:37;6.32;;;5.72;;
68987;SDS011;56038;46.080;11.116;2024-03-02T22:01:39;6.75;;;6.10;;
68987;SDS011;56038;46.080;11.116;2024-03-02T22:06:42;11.35;;;5.82;;
68987;SDS011;56038;46.080;11.116;2024-03-02T22:11:44;8.70;;;7.10;;
68987;SDS011;56038;46.080;11.116;2024-03-02T22:16:46;6.82;;;5.60;;
68987;SDS011;56038;46.080;11.116;2024-03-02T22:21:49;7.38;;;5.95;;
68987;SDS011;56038;46.080;11.116;2024-03-02T22:26:51;9.18;;;7.93;;
68987;SDS011;56038;46.080;11.116;2024-03-02T22:31:53;8.10;;;7.30;;
68987;SDS011;56038;46.080;11.116;2024-03-02T22:36:56;7.93;;;7.13;;
68987;SDS011;56038;46.080;11.116;2024-03-02T22:41:58;7.18;;;6.53;;
68987;SDS011;56038;46.080;11.116;2024-03-02T22:47:00;8.13;;;6.97;;
68987;SDS011;56038;46.080;11.116;2024-03-02T22:52:03;6.07;;;5.47;;
68987;SDS011;56038;46.080;11.116;2024-03-02T22:57:06;6.18;;;5.57;;
68987;SDS011;56038;46.080;11.116;2024-03-02T23:02:08;11.05;;;8.45;;
68987;SDS011;56038;46.080;11.116;2024-03-02T23:07:11;10.60;;;8.00;;
68987;SDS011;56038;46.080;11.116;2024-03-02T23:12:18;8.60;;;7.70;;
68987;SDS011;56038;46.080;11.116;2024-03-02T23:17:20;10.25;;;8.10;;
68987;SDS011;56038;46.080;11.116;2024-03-02T23:22:23;9.65;;;6.45;;
68987;SDS011;56038;46.080;11.116;2024-03-02T23:27:25;7.38;;;6.47;;
68987;SDS011;56038;46.080;11.116;2024-03-02T23:32:27;8.85;;;7.53;;
68987;SDS011;56038;46.080;11.116;2024-03-02T23:37:30;7.78;;;6.18;;
68987;SDS011;56038;46.080;11.116;2024-03-02T23:42:32;5.78;;;5.18;;
68987;SDS011;56038;46.080;11.116;2024-03-02T23:47:34;6.88;;;6.03;;
68987;SDS011;56038;46.080;11.116;2024-03-02T23:52:37;5.55;;;5.03;;
68987;SDS011;56038;46.080;11.116;2024-03-02T23:57:39;6.10;;;5.50;;
